createdAt,value
2022-12-09T00:01:01.830Z,100960
2022-12-09T00:06:01.862Z,100960
2022-12-09T00:11:01.715Z,100960
2022-12-09T00:16:01.932Z,100960
2022-12-09T00:21:01.903Z,100950
2022-12-09T00:26:01.668Z,100950
2022-12-09T00:31:01.707Z,100940
2022-12-09T00:36:01.870Z,100940
2022-12-09T00:41:02.008Z,100940
2022-12-09T00:46:01.735Z,100940
2022-12-09T00:51:01.678Z,100950
2022-12-09T00:56:01.773Z,100950
2022-12-09T01:01:01.797Z,100950
2022-12-09T01:06:02.156Z,100960
2022-12-09T01:11:01.758Z,100960
2022-12-09T01:16:02.012Z,100960
2022-12-09T01:21:01.690Z,100960
2022-12-09T01:26:01.705Z,100960
2022-12-09T01:31:01.888Z,100970
2022-12-09T01:36:01.758Z,100970
2022-12-09T01:41:02.097Z,100970
2022-12-09T01:46:01.887Z,100970
2022-12-09T01:51:01.806Z,100970
2022-12-09T01:56:02.060Z,100980
2022-12-09T02:01:01.881Z,100980
2022-12-09T02:06:02.012Z,100970
2022-12-09T02:11:01.859Z,100970
2022-12-09T02:16:01.840Z,100970
2022-12-09T02:21:01.988Z,100970
2022-12-09T02:26:01.724Z,100960
2022-12-09T02:31:02.063Z,100960
2022-12-09T02:36:02.072Z,100950
2022-12-09T02:41:02.105Z,100950
2022-12-09T02:46:01.775Z,100950
2022-12-09T02:51:01.751Z,100950
2022-12-09T02:56:01.857Z,100950
2022-12-09T03:01:02.056Z,100950
2022-12-09T03:06:02.238Z,100950
2022-12-09T03:11:02.270Z,100960
2022-12-09T03:16:01.846Z,100950
2022-12-09T03:21:01.759Z,100950
2022-12-09T03:26:02.109Z,100950
2022-12-09T03:31:02.075Z,100950
2022-12-09T03:36:01.968Z,100940
2022-12-09T03:41:02.080Z,100940
2022-12-09T03:46:01.935Z,100930
2022-12-09T03:51:01.778Z,100930
2022-12-09T03:56:01.847Z,100930
2022-12-09T04:01:01.992Z,100930
2022-12-09T04:06:02.243Z,100930
2022-12-09T04:11:02.164Z,100930
2022-12-09T04:16:01.852Z,100920
2022-12-09T04:21:02.022Z,100920
2022-12-09T04:26:01.923Z,100920
2022-12-09T04:31:01.855Z,100920
2022-12-09T04:36:02.212Z,100910
2022-12-09T04:41:02.450Z,100920
2022-12-09T04:46:02.050Z,100920
2022-12-09T04:51:02.094Z,100920
2022-12-09T04:56:01.894Z,100920
2022-12-09T05:01:01.912Z,100920
2022-12-09T05:06:02.081Z,100920
2022-12-09T05:11:02.393Z,100920
2022-12-09T05:16:02.055Z,100930
2022-12-09T05:21:01.986Z,100930
2022-12-09T05:26:02.057Z,100930
2022-12-09T05:31:02.308Z,100930
2022-12-09T05:36:02.161Z,100930
2022-12-09T05:41:02.204Z,100930
2022-12-09T05:46:01.998Z,100920
2022-12-09T05:51:02.031Z,100920
2022-12-09T05:56:02.335Z,100920
2022-12-09T06:01:01.912Z,100920
2022-12-09T06:06:02.625Z,100920
2022-12-09T06:11:02.398Z,100920
2022-12-09T06:16:02.141Z,100910
2022-12-09T06:21:02.098Z,100910
2022-12-09T06:26:02.290Z,100910
2022-12-09T06:31:01.927Z,100910
2022-12-09T06:36:02.216Z,100920
2022-12-09T06:41:02.424Z,100920
2022-12-09T06:46:01.922Z,100930
2022-12-09T06:51:02.031Z,100930
2022-12-09T06:56:06.512Z,100930
2022-12-09T07:01:02.205Z,100930
2022-12-09T07:06:02.106Z,100930
2022-12-09T07:11:02.277Z,100930
2022-12-09T07:16:02.186Z,100940
2022-12-09T07:21:02.220Z,100940
2022-12-09T07:26:02.371Z,100940
2022-12-09T07:31:01.945Z,100940
2022-12-09T07:36:01.940Z,100940
2022-12-09T07:41:02.303Z,100940
2022-12-09T07:46:02.025Z,100940
2022-12-09T07:51:02.129Z,100940
2022-12-09T07:56:01.912Z,100940
2022-12-09T08:01:02.326Z,100940
2022-12-09T08:06:02.536Z,100940
2022-12-09T08:11:02.349Z,100940
2022-12-09T08:16:01.990Z,100940
2022-12-09T08:21:02.142Z,100950
2022-12-09T08:26:02.058Z,100940
2022-12-09T08:31:02.096Z,100950
2022-12-09T08:36:02.032Z,100950
2022-12-09T08:41:02.518Z,100950
2022-12-09T08:46:02.092Z,100950
2022-12-09T08:51:01.993Z,100960
2022-12-09T08:56:02.027Z,100960
2022-12-09T09:01:02.436Z,100960
2022-12-09T09:06:08.778Z,100960
2022-12-09T09:11:02.869Z,100960
2022-12-09T09:16:02.066Z,100970
2022-12-09T09:21:02.037Z,100970
2022-12-09T09:26:01.975Z,100960
2022-12-09T09:31:02.452Z,100960
2022-12-09T09:36:08.345Z,100960
2022-12-09T09:41:03.065Z,100960
2022-12-09T09:46:02.118Z,100960
2022-12-09T09:51:02.330Z,100960
2022-12-09T09:56:02.144Z,100960
2022-12-09T10:01:02.500Z,100960
2022-12-09T10:06:02.685Z,100960
2022-12-09T10:11:02.661Z,100960
2022-12-09T10:15:04.419Z,100950
2022-12-09T10:16:02.671Z,100950
2022-12-09T10:21:02.419Z,100950
2022-12-09T10:26:02.229Z,100950
2022-12-09T10:31:02.501Z,100940
2022-12-09T10:36:02.182Z,100940
2022-12-09T10:41:02.104Z,100930
2022-12-09T10:46:18.778Z,100930
2022-12-09T10:51:02.420Z,100940
2022-12-09T10:56:02.533Z,100930
2022-12-09T11:01:02.157Z,100940
2022-12-09T11:06:02.327Z,100930
2022-12-09T11:11:02.143Z,100940
2022-12-09T11:16:02.239Z,100930
2022-12-09T11:21:02.469Z,100920
2022-12-09T11:26:02.553Z,100920
2022-12-09T11:31:28.412Z,100930
2022-12-09T11:36:02.359Z,100930
2022-12-09T11:41:02.026Z,100930
2022-12-09T11:46:02.083Z,100930
2022-12-09T11:51:02.028Z,100930
2022-12-09T11:56:02.105Z,100940
2022-12-09T12:01:02.041Z,100940
2022-12-09T12:06:02.038Z,100940
2022-12-09T12:11:02.049Z,100940
2022-12-09T12:16:02.103Z,100940
2022-12-09T12:21:02.058Z,100940
2022-12-09T12:26:02.114Z,100940
2022-12-09T12:31:02.059Z,100930
2022-12-09T12:36:02.048Z,100930
2022-12-09T12:41:02.063Z,100930
2022-12-09T12:46:02.149Z,100930
2022-12-09T12:51:02.115Z,100930
2022-12-09T12:56:02.063Z,100930
2022-12-09T13:01:02.221Z,100930
2022-12-09T13:06:02.064Z,100920
2022-12-09T13:11:02.072Z,100910
2022-12-09T13:16:02.079Z,100910
2022-12-09T13:21:02.073Z,100910
2022-12-09T13:26:02.137Z,100910
2022-12-09T13:31:02.122Z,100910
2022-12-09T13:36:06.227Z,100910
2022-12-09T13:41:02.083Z,100910
2022-12-09T13:46:02.245Z,100910
2022-12-09T13:51:02.096Z,100910
2022-12-09T13:56:02.154Z,100900
2022-12-09T14:01:04.725Z,100900
2022-12-09T14:06:02.232Z,100910
2022-12-09T14:11:02.116Z,100900
2022-12-09T14:16:02.122Z,100900
2022-12-09T14:21:02.116Z,100910
2022-12-09T14:26:02.285Z,100910
2022-12-09T14:31:08.346Z,100900
2022-12-09T14:36:02.238Z,100900
2022-12-09T14:41:02.124Z,100900
2022-12-09T14:46:02.240Z,100900
2022-12-09T14:51:02.123Z,100900
2022-12-09T14:56:02.188Z,100910
2022-12-09T15:01:02.142Z,100900
2022-12-09T15:06:02.251Z,100920
2022-12-09T15:11:02.134Z,100920
2022-12-09T15:16:02.207Z,100920
2022-12-09T15:21:02.141Z,100920
2022-12-09T15:26:02.207Z,100920
2022-12-09T15:31:02.199Z,100920
2022-12-09T15:36:02.415Z,100930
2022-12-09T15:41:02.151Z,100910
2022-12-09T15:46:02.159Z,100940
2022-12-09T15:51:02.170Z,100940
2022-12-09T15:56:02.282Z,100940
2022-12-09T16:01:02.163Z,100930
2022-12-09T16:06:02.297Z,100930
2022-12-09T16:11:02.173Z,100940
2022-12-09T16:16:02.266Z,100940
2022-12-09T16:21:02.177Z,100940
2022-12-09T16:26:07.009Z,100930
2022-12-09T16:31:02.192Z,100930
2022-12-09T16:36:02.357Z,100930
2022-12-09T16:41:02.183Z,100930
2022-12-09T16:46:02.282Z,100930
2022-12-09T16:51:02.237Z,100920
2022-12-09T16:56:02.257Z,100930
2022-12-09T17:01:02.212Z,100930
2022-12-09T17:06:02.275Z,100930
2022-12-09T17:11:02.206Z,100930
2022-12-09T17:16:02.323Z,100930
2022-12-09T17:21:02.215Z,100940
2022-12-09T17:26:02.267Z,100930
2022-12-09T17:31:02.219Z,100940
2022-12-09T17:36:02.328Z,100950
2022-12-09T17:41:02.329Z,100960
2022-12-09T17:46:02.282Z,100970
2022-12-09T17:51:02.228Z,100970
2022-12-09T17:56:02.306Z,100990
2022-12-09T18:01:02.371Z,100990
2022-12-09T18:06:02.354Z,100990
2022-12-09T18:11:02.232Z,101000
2022-12-09T18:16:02.266Z,100990
2022-12-09T18:21:02.242Z,100990
2022-12-09T18:26:02.299Z,100990
2022-12-09T18:31:02.287Z,100990
2022-12-09T18:36:02.364Z,100990
2022-12-09T18:41:02.250Z,101000
2022-12-09T18:46:02.306Z,100990
2022-12-09T18:51:02.263Z,101000
2022-12-09T18:56:02.320Z,101010
2022-12-09T19:01:02.281Z,101010
2022-12-09T19:06:02.384Z,101010
2022-12-09T19:11:02.265Z,101010
2022-12-09T19:16:02.350Z,101020
2022-12-09T19:21:02.275Z,101020
2022-12-09T19:26:02.327Z,101020
2022-12-09T19:31:02.300Z,101030
2022-12-09T19:36:02.348Z,101040
2022-12-09T19:41:02.281Z,101040
2022-12-09T19:46:02.346Z,101040
2022-12-09T19:51:02.290Z,101050
2022-12-09T19:56:02.358Z,101050
2022-12-09T20:01:02.291Z,101040
2022-12-09T20:06:02.418Z,101050
2022-12-09T20:11:02.296Z,101050
2022-12-09T20:16:02.374Z,101050
2022-12-09T20:21:02.300Z,101050
2022-12-09T20:26:02.371Z,101050
2022-12-09T20:31:02.337Z,101050
2022-12-09T20:36:02.377Z,101060
2022-12-09T20:41:02.310Z,101050
2022-12-09T20:46:02.348Z,101060
2022-12-09T20:51:02.317Z,101060
2022-12-09T20:56:02.376Z,101060
2022-12-09T21:01:02.367Z,101060
2022-12-09T21:06:02.460Z,101060
2022-12-09T21:11:02.328Z,101060
2022-12-09T21:16:02.366Z,101060
2022-12-09T21:21:02.335Z,101060
2022-12-09T21:26:02.417Z,101070
2022-12-09T21:31:02.336Z,101060
2022-12-09T21:36:02.400Z,101070
2022-12-09T21:41:02.365Z,101080
2022-12-09T21:46:02.408Z,101080
2022-12-09T21:51:02.347Z,101080
2022-12-09T21:56:02.412Z,101080
2022-12-09T22:01:02.426Z,101080
2022-12-09T22:06:02.421Z,101080
2022-12-09T22:11:02.362Z,101080
2022-12-09T22:16:02.374Z,101080
2022-12-09T22:21:24.254Z,101080
2022-12-09T22:26:02.423Z,101090
2022-12-09T22:31:02.430Z,101090
2022-12-09T22:36:02.489Z,101090
2022-12-09T22:41:02.382Z,101090
2022-12-09T22:46:02.404Z,101090
2022-12-09T22:51:02.381Z,101100
2022-12-09T22:56:02.448Z,101100
2022-12-09T23:01:02.393Z,101090
2022-12-09T23:06:02.524Z,101090
2022-12-09T23:11:02.389Z,101100
2022-12-09T23:16:02.432Z,101100
2022-12-09T23:21:02.427Z,101110
2022-12-09T23:26:02.461Z,101100
2022-12-09T23:31:02.460Z,101110
2022-12-09T23:36:02.541Z,101100
2022-12-09T23:41:02.412Z,101110
2022-12-09T23:46:02.496Z,101100
2022-12-09T23:51:02.426Z,101110
2022-12-09T23:56:02.478Z,101110
